createdAt,value
2018-04-20T00:02:21.562Z,16.68
2018-04-20T00:04:49.929Z,16.65
2018-04-20T00:07:18.296Z,16.69
2018-04-20T00:09:46.748Z,16.43
2018-04-20T00:12:15.273Z,16.34
2018-04-20T00:14:43.681Z,16.29
2018-04-20T00:17:12.050Z,16.00
2018-04-20T00:19:40.408Z,15.85
2018-04-20T00:22:08.824Z,16.24
2018-04-20T00:24:37.290Z,16.31
2018-04-20T00:27:05.720Z,16.36
2018-04-20T00:29:34.117Z,16.12
2018-04-20T00:32:02.514Z,16.28
2018-04-20T00:34:30.888Z,16.37
2018-04-20T00:36:59.363Z,16.34
2018-04-20T00:39:27.717Z,16.41
2018-04-20T00:41:56.113Z,16.38
2018-04-20T00:44:24.494Z,16.51
2018-04-20T00:46:52.883Z,16.24
2018-04-20T00:49:21.260Z,16.36
2018-04-20T00:51:49.691Z,16.84
2018-04-20T00:54:24.906Z,17.05
2018-04-20T00:56:53.422Z,17.01
2018-04-20T00:59:21.806Z,17.36
2018-04-20T01:01:50.178Z,17.27
2018-04-20T01:04:18.582Z,17.14
2018-04-20T01:06:46.969Z,17.14
2018-04-20T01:09:15.325Z,17.43
2018-04-20T01:11:43.727Z,17.11
2018-04-20T01:14:12.114Z,16.95
2018-04-20T01:16:40.565Z,17.34
2018-04-20T01:19:08.933Z,17.11
2018-04-20T01:21:37.311Z,17.16
2018-04-20T01:24:05.710Z,17.13
2018-04-20T01:26:34.105Z,17.24
2018-04-20T01:29:02.569Z,16.96
2018-04-20T01:31:31.001Z,17.15
2018-04-20T01:33:59.447Z,16.73
2018-04-20T01:36:27.790Z,16.67
2018-04-20T01:38:56.163Z,16.68
2018-04-20T01:41:24.617Z,16.87
2018-04-20T01:43:53.000Z,16.87
2018-04-20T01:46:21.398Z,16.91
2018-04-20T01:48:49.720Z,16.79
2018-04-20T01:51:18.118Z,16.76
2018-04-20T01:53:46.533Z,16.79
2018-04-20T01:56:14.927Z,16.87
2018-04-20T01:58:43.373Z,17.06
2018-04-20T02:01:11.774Z,17.14
2018-04-20T02:03:40.129Z,16.84
2018-04-20T02:06:08.513Z,16.73
2018-04-20T02:08:36.877Z,16.89
2018-04-20T02:11:05.287Z,17.00
2018-04-20T02:13:33.651Z,17.10
2018-04-20T02:16:02.100Z,16.69
2018-04-20T02:18:30.481Z,17.08
2018-04-20T02:20:58.886Z,17.05
2018-04-20T02:23:27.301Z,17.32
2018-04-20T02:25:55.689Z,17.01
2018-04-20T02:28:24.092Z,17.41
2018-04-20T02:30:52.508Z,17.48
2018-04-20T02:33:20.882Z,17.20
2018-04-20T02:35:49.281Z,17.54
2018-04-20T02:38:17.734Z,17.55
2018-04-20T02:40:46.139Z,17.12
2018-04-20T02:43:14.572Z,17.40
2018-04-20T02:45:42.983Z,16.92
2018-04-20T02:48:11.470Z,16.58
2018-04-20T02:50:39.878Z,17.06
2018-04-20T02:53:08.340Z,16.90
2018-04-20T02:55:36.801Z,17.04
2018-04-20T02:58:05.150Z,16.70
2018-04-20T03:00:33.609Z,16.79
2018-04-20T03:03:02.006Z,16.65
2018-04-20T03:05:30.468Z,16.87
2018-04-20T03:07:58.862Z,16.99
2018-04-20T03:10:27.368Z,16.92
2018-04-20T03:12:55.770Z,16.31
2018-04-20T03:15:24.168Z,16.64
2018-04-20T03:17:52.590Z,16.79
2018-04-20T03:20:20.997Z,16.65
2018-04-20T03:22:49.404Z,16.63
2018-04-20T03:25:17.774Z,16.83
2018-04-20T03:27:46.202Z,16.47
2018-04-20T03:30:14.674Z,16.76
2018-04-20T03:32:43.042Z,16.74
2018-04-20T03:35:11.427Z,16.74
2018-04-20T03:37:39.790Z,16.34
2018-04-20T03:40:08.205Z,16.93
2018-04-20T03:42:36.574Z,16.56
2018-04-20T03:45:04.971Z,16.81
2018-04-20T03:47:33.345Z,16.61
2018-04-20T03:50:01.787Z,16.72
2018-04-20T03:52:30.133Z,16.66
2018-04-20T03:54:58.501Z,16.33
2018-04-20T03:57:26.945Z,16.69
2018-04-20T03:59:55.345Z,16.53
2018-04-20T04:02:23.707Z,16.31
2018-04-20T04:04:52.120Z,16.58
2018-04-20T04:07:20.494Z,16.25
2018-04-20T04:09:48.890Z,16.26
2018-04-20T04:12:17.356Z,16.12
2018-04-20T04:14:45.741Z,16.35
2018-04-20T04:17:25.799Z,16.46
2018-04-20T04:23:07.972Z,16.26
2018-04-20T04:25:47.969Z,16.37
2018-04-20T04:28:26.348Z,16.13
2018-04-20T04:30:54.741Z,16.02
2018-04-20T04:33:23.175Z,16.29
2018-04-20T04:35:51.572Z,16.10
2018-04-20T04:38:19.949Z,16.26
2018-04-20T04:40:48.315Z,16.26
2018-04-20T04:43:16.670Z,16.62
2018-04-20T04:45:45.060Z,16.38
2018-04-20T04:48:13.421Z,16.54
2018-04-20T04:50:41.838Z,16.54
2018-04-20T04:53:10.219Z,16.60
2018-04-20T04:55:38.641Z,16.26
2018-04-20T04:58:07.014Z,16.44
2018-04-20T05:00:35.398Z,16.20
2018-04-20T05:03:03.784Z,16.50
2018-04-20T05:05:32.195Z,16.34
2018-04-20T05:08:00.554Z,16.68
2018-04-20T05:10:28.926Z,16.68
2018-04-20T05:12:57.345Z,16.72
2018-04-20T05:15:25.704Z,16.87
2018-04-20T05:17:54.060Z,16.96
2018-04-20T05:20:22.538Z,16.98
2018-04-20T05:22:50.943Z,17.01
2018-04-20T05:25:19.320Z,17.18
2018-04-20T05:27:47.735Z,17.29
2018-04-20T05:30:16.236Z,17.51
2018-04-20T05:32:44.715Z,17.48
2018-04-20T05:35:13.090Z,17.37
2018-04-20T05:37:41.569Z,17.53
2018-04-20T05:40:09.984Z,18.00
2018-04-20T05:42:38.446Z,18.03
2018-04-20T05:45:11.201Z,18.19
2018-04-20T05:47:40.577Z,18.17
2018-04-20T05:50:09.033Z,18.46
2018-04-20T05:52:37.539Z,18.75
2018-04-20T05:55:05.941Z,18.78
2018-04-20T05:57:34.402Z,18.85
2018-04-20T06:00:03.729Z,19.34
2018-04-20T06:02:32.163Z,19.16
2018-04-20T06:05:00.646Z,19.60
2018-04-20T06:07:29.046Z,20.18
2018-04-20T06:09:57.500Z,21.32
2018-04-20T06:12:25.914Z,22.18
2018-04-20T06:15:03.409Z,24.27
2018-04-20T06:17:31.861Z,26.32
2018-04-20T06:20:00.306Z,26.75
2018-04-20T06:22:28.759Z,28.79
2018-04-20T06:24:57.164Z,29.91
2018-04-20T06:27:25.754Z,30.44
2018-04-20T06:29:54.192Z,31.05
2018-04-20T06:32:22.666Z,32.23
2018-04-20T06:34:54.129Z,32.50
2018-04-20T06:37:22.522Z,32.07
2018-04-20T06:39:50.984Z,32.93
2018-04-20T06:42:19.387Z,34.52
2018-04-20T06:44:47.751Z,34.06
2018-04-20T06:47:16.123Z,32.91
2018-04-20T06:49:44.531Z,32.34
2018-04-20T06:52:12.965Z,31.90
2018-04-20T06:54:41.331Z,32.12
2018-04-20T06:57:10.260Z,31.85
2018-04-20T06:59:38.615Z,32.83
2018-04-20T07:02:06.976Z,32.95
2018-04-20T07:04:35.409Z,33.30
2018-04-20T07:07:03.771Z,33.54
2018-04-20T07:09:32.135Z,33.42
2018-04-20T07:12:00.529Z,33.34
2018-04-20T07:14:28.884Z,33.67
2018-04-20T07:16:57.336Z,33.79
2018-04-20T07:19:25.686Z,34.26
2018-04-20T07:21:54.041Z,34.40
2018-04-20T07:24:22.401Z,34.81
2018-04-20T07:26:50.783Z,33.69
2018-04-20T07:29:19.187Z,34.11
2018-04-20T07:31:47.598Z,34.02
2018-04-20T07:34:16.096Z,34.05
2018-04-20T07:36:44.487Z,34.18
2018-04-20T07:39:12.878Z,34.62
2018-04-20T07:41:41.280Z,34.28
2018-04-20T07:44:09.765Z,34.65
2018-04-20T07:46:38.194Z,34.56
2018-04-20T07:49:06.573Z,34.99
2018-04-20T07:51:34.961Z,34.03
2018-04-20T07:54:03.339Z,34.52
2018-04-20T07:56:31.805Z,34.19
2018-04-20T07:59:00.388Z,34.41
2018-04-20T08:01:28.835Z,33.29
2018-04-20T08:03:57.612Z,32.85
2018-04-20T08:06:26.632Z,33.40
2018-04-20T08:08:55.027Z,33.85
2018-04-20T08:11:23.493Z,34.53
2018-04-20T08:13:51.924Z,35.59
2018-04-20T08:16:20.366Z,36.16
2018-04-20T08:18:48.773Z,35.77
2018-04-20T08:21:17.147Z,36.02
2018-04-20T08:23:45.590Z,34.68
2018-04-20T08:26:13.972Z,33.95
2018-04-20T08:28:42.678Z,35.36
2018-04-20T08:31:11.129Z,35.58
2018-04-20T08:33:39.787Z,36.05
2018-04-20T08:36:08.737Z,35.68
2018-04-20T08:38:39.249Z,34.68
2018-04-20T08:41:08.154Z,35.66
2018-04-20T08:43:40.617Z,35.95
2018-04-20T08:46:11.605Z,36.05
2018-04-20T08:48:41.473Z,36.09
2018-04-20T08:51:11.436Z,35.13
2018-04-20T08:53:42.938Z,34.83
2018-04-20T08:56:22.751Z,34.04
2018-04-20T08:58:54.827Z,34.43
2018-04-20T09:01:29.445Z,35.37
2018-04-20T09:04:08.033Z,36.59
2018-04-20T09:06:42.915Z,37.27
2018-04-20T09:09:17.650Z,36.96
2018-04-20T09:11:48.530Z,35.68
2018-04-20T09:14:16.963Z,35.99
2018-04-20T09:19:19.910Z,37.67
2018-04-20T09:21:48.449Z,38.20
2018-04-20T09:24:16.793Z,37.01
2018-04-20T09:26:45.154Z,38.27
2018-04-20T09:29:13.734Z,37.75
2018-04-20T09:31:42.112Z,38.39
2018-04-20T09:34:10.469Z,38.22
2018-04-20T09:36:38.915Z,38.21
2018-04-20T09:39:07.298Z,39.02
2018-04-20T09:41:35.720Z,38.34
2018-04-20T09:44:04.113Z,39.44
2018-04-20T09:46:32.587Z,38.97
2018-04-20T09:49:00.981Z,38.10
2018-04-20T09:51:29.410Z,38.91
2018-04-20T09:53:57.782Z,39.06
2018-04-20T09:56:26.165Z,41.77
2018-04-20T09:58:54.553Z,40.13
2018-04-20T10:01:24.907Z,40.32
2018-04-20T10:03:57.121Z,39.26
2018-04-20T10:06:25.514Z,37.81
2018-04-20T10:11:37.230Z,40.36
2018-04-20T10:14:05.683Z,39.99
2018-04-20T10:16:34.096Z,38.79
2018-04-20T10:19:02.485Z,38.46
2018-04-20T10:21:30.889Z,37.69
2018-04-20T10:23:59.274Z,39.25
2018-04-20T10:26:27.793Z,39.29
2018-04-20T10:28:56.178Z,40.42
2018-04-20T10:31:24.566Z,41.19
2018-04-20T10:33:53.038Z,41.13
2018-04-20T10:36:21.409Z,42.72
2018-04-20T10:38:49.899Z,42.06
2018-04-20T10:41:18.292Z,41.75
2018-04-20T10:43:46.687Z,41.09
2018-04-20T10:46:15.076Z,41.12
2018-04-20T10:48:43.551Z,39.82
2018-04-20T10:51:11.999Z,39.78
2018-04-20T10:53:40.451Z,39.81
2018-04-20T10:56:08.853Z,40.59
2018-04-20T10:58:37.363Z,40.06
2018-04-20T11:01:05.748Z,40.27
2018-04-20T11:03:34.143Z,39.44
2018-04-20T11:06:02.599Z,38.52
2018-04-20T11:08:31.164Z,38.58
2018-04-20T11:10:59.585Z,38.72
2018-04-20T11:13:28.011Z,39.56
2018-04-20T11:15:56.429Z,40.07
2018-04-20T11:18:24.893Z,40.24
2018-04-20T11:20:53.313Z,39.26
2018-04-20T11:23:21.796Z,39.82
2018-04-20T11:25:50.202Z,41.24
2018-04-20T11:28:18.583Z,40.78
2018-04-20T11:30:46.990Z,39.33
2018-04-20T11:33:15.411Z,38.90
2018-04-20T11:35:43.824Z,39.38
2018-04-20T11:38:12.278Z,40.30
2018-04-20T11:40:40.777Z,40.44
2018-04-20T11:43:09.260Z,39.76
2018-04-20T11:45:37.646Z,39.48
2018-04-20T11:48:06.032Z,39.11
2018-04-20T11:50:34.446Z,39.57
2018-04-20T11:53:03.215Z,38.90
2018-04-20T11:55:31.895Z,39.12
2018-04-20T11:58:00.250Z,39.21
2018-04-20T12:00:28.622Z,38.08
2018-04-20T12:02:56.976Z,35.40
2018-04-20T12:05:25.348Z,33.75
2018-04-20T12:07:53.722Z,34.55
2018-04-20T12:10:22.095Z,34.91
2018-04-20T12:12:50.490Z,34.35
2018-04-20T12:15:18.875Z,35.05
2018-04-20T12:17:47.280Z,35.46
2018-04-20T12:20:15.744Z,35.46
2018-04-20T12:22:44.251Z,36.02
2018-04-20T12:25:12.660Z,35.54
2018-04-20T12:27:41.049Z,35.51
2018-04-20T12:30:09.502Z,35.04
2018-04-20T12:32:38.033Z,35.50
2018-04-20T12:35:06.434Z,35.70
2018-04-20T12:37:34.847Z,33.28
2018-04-20T12:40:03.248Z,33.82
2018-04-20T12:42:31.668Z,33.47
2018-04-20T12:45:00.100Z,33.82
2018-04-20T12:47:28.530Z,34.69
2018-04-20T12:49:56.978Z,34.46
2018-04-20T12:52:25.421Z,34.00
2018-04-20T12:54:53.803Z,34.27
2018-04-20T12:57:22.207Z,34.19
2018-04-20T12:59:50.571Z,34.00
2018-04-20T13:02:18.961Z,34.49
2018-04-20T13:04:47.345Z,32.97
2018-04-20T13:07:15.768Z,33.99
2018-04-20T13:09:44.159Z,34.16
2018-04-20T13:12:12.509Z,33.34
2018-04-20T13:14:40.864Z,34.09
2018-04-20T13:17:09.221Z,34.31
2018-04-20T13:19:37.594Z,35.33
2018-04-20T13:22:05.963Z,34.65
2018-04-20T13:24:34.355Z,34.94
2018-04-20T13:27:02.697Z,33.91
2018-04-20T13:29:31.061Z,34.34
2018-04-20T13:31:59.417Z,34.07
2018-04-20T13:34:27.781Z,35.00
2018-04-20T13:36:56.121Z,34.49
2018-04-20T13:39:24.539Z,34.28
2018-04-20T13:41:52.901Z,33.68
2018-04-20T13:44:21.258Z,33.80
2018-04-20T13:46:49.623Z,33.41
2018-04-20T13:49:18.014Z,33.68
2018-04-20T13:51:46.390Z,34.57
2018-04-20T13:54:14.751Z,33.59
2018-04-20T13:56:43.162Z,33.01
2018-04-20T13:59:11.686Z,33.16
2018-04-20T14:01:40.106Z,33.41
2018-04-20T14:04:08.500Z,33.34
2018-04-20T14:06:36.887Z,34.01
2018-04-20T14:09:06.098Z,34.37
2018-04-20T14:11:34.520Z,33.77
2018-04-20T14:14:02.902Z,33.33
2018-04-20T14:16:31.424Z,33.08
2018-04-20T14:18:59.902Z,33.28
2018-04-20T14:21:28.297Z,33.54
2018-04-20T14:23:56.686Z,32.81
2018-04-20T14:26:25.142Z,32.85
2018-04-20T14:28:53.487Z,32.62
2018-04-20T14:31:21.845Z,32.84
2018-04-20T14:33:50.215Z,32.14
2018-04-20T14:36:18.591Z,32.50
2018-04-20T14:38:46.956Z,31.93
2018-04-20T14:41:15.413Z,32.90
2018-04-20T14:43:43.876Z,32.88
2018-04-20T14:46:12.161Z,33.01
2018-04-20T14:48:40.640Z,33.06
2018-04-20T14:51:09.001Z,33.14
2018-04-20T14:53:37.370Z,32.67
2018-04-20T14:56:05.827Z,32.78
2018-04-20T14:58:34.199Z,32.49
2018-04-20T15:01:02.581Z,32.44
2018-04-20T15:03:30.933Z,32.08
2018-04-20T15:05:59.304Z,32.58
2018-04-20T15:08:27.681Z,32.75
2018-04-20T15:10:56.029Z,32.20
2018-04-20T15:13:24.523Z,32.75
2018-04-20T15:15:52.899Z,32.47
2018-04-20T15:18:21.316Z,32.44
2018-04-20T15:20:49.763Z,32.37
2018-04-20T15:23:18.107Z,32.60
2018-04-20T15:25:46.601Z,32.70
2018-04-20T15:28:14.991Z,32.56
2018-04-20T15:30:43.356Z,32.51
2018-04-20T15:33:11.769Z,31.80
2018-04-20T15:35:40.176Z,32.11
2018-04-20T15:38:08.626Z,32.24
2018-04-20T15:40:37.034Z,32.12
2018-04-20T15:43:05.539Z,32.91
2018-04-20T15:45:33.951Z,32.26
2018-04-20T15:48:02.349Z,32.44
2018-04-20T15:50:30.753Z,31.92
2018-04-20T15:52:59.136Z,31.58
2018-04-20T15:55:27.594Z,31.24
2018-04-20T15:57:56.002Z,31.15
2018-04-20T16:00:24.425Z,31.14
2018-04-20T16:02:52.831Z,31.40
2018-04-20T16:05:21.266Z,30.95
2018-04-20T16:07:49.650Z,29.91
2018-04-20T16:10:18.072Z,30.23
2018-04-20T16:12:46.503Z,30.07
2018-04-20T16:15:14.920Z,30.81
2018-04-20T16:17:43.358Z,30.68
2018-04-20T16:20:11.804Z,30.56
2018-04-20T16:22:40.203Z,30.28
2018-04-20T16:25:08.620Z,31.02
2018-04-20T16:27:37.021Z,30.36
2018-04-20T16:30:05.445Z,30.65
2018-04-20T16:32:33.924Z,30.92
2018-04-20T16:35:02.369Z,29.93
2018-04-20T16:37:30.873Z,30.35
2018-04-20T16:39:59.298Z,30.44
2018-04-20T16:42:27.729Z,30.91
2018-04-20T16:44:56.122Z,30.45
2018-04-20T16:47:24.794Z,30.27
2018-04-20T16:49:53.693Z,30.25
2018-04-20T16:52:22.096Z,29.90
2018-04-20T16:54:50.566Z,30.40
2018-04-20T16:57:18.962Z,30.23
2018-04-20T16:59:47.376Z,30.00
2018-04-20T17:02:15.770Z,29.70
2018-04-20T17:04:44.257Z,29.97
2018-04-20T17:07:12.749Z,29.33
2018-04-20T17:09:41.120Z,29.29
2018-04-20T17:12:09.521Z,29.63
2018-04-20T17:14:37.907Z,29.61
2018-04-20T17:17:06.303Z,29.52
2018-04-20T17:19:34.707Z,29.55
2018-04-20T17:22:03.078Z,29.32
2018-04-20T17:24:31.484Z,29.55
2018-04-20T17:26:59.861Z,29.49
2018-04-20T17:29:28.252Z,29.44
2018-04-20T17:31:56.626Z,29.02
2018-04-20T17:34:25.004Z,29.34
2018-04-20T17:36:53.451Z,29.34
2018-04-20T17:39:21.841Z,29.63
2018-04-20T17:41:50.331Z,29.59
2018-04-20T17:44:18.698Z,29.56
2018-04-20T17:46:47.116Z,29.53
2018-04-20T17:49:15.601Z,29.54
2018-04-20T17:51:44.059Z,28.90
2018-04-20T17:54:12.460Z,28.30
2018-04-20T17:56:40.858Z,27.97
2018-04-20T17:59:09.244Z,27.59
2018-04-20T18:01:37.678Z,27.42
2018-04-20T18:04:06.123Z,27.12
2018-04-20T18:06:34.505Z,26.98
2018-04-20T18:09:02.893Z,27.01
2018-04-20T18:11:31.369Z,26.89
2018-04-20T18:13:59.739Z,26.50
2018-04-20T18:16:28.218Z,26.25
2018-04-20T18:18:56.578Z,26.17
2018-04-20T18:21:24.969Z,26.06
2018-04-20T18:23:53.405Z,26.26
2018-04-20T18:26:21.767Z,25.55
2018-04-20T18:28:50.154Z,25.49
2018-04-20T18:31:18.513Z,25.26
2018-04-20T18:33:46.904Z,25.29
2018-04-20T18:36:15.354Z,25.09
2018-04-20T18:38:43.733Z,24.91
2018-04-20T18:41:12.133Z,24.64
2018-04-20T18:43:40.494Z,24.30
2018-04-20T18:46:08.878Z,24.46
2018-04-20T18:48:37.333Z,24.42
2018-04-20T18:51:05.738Z,24.21
2018-04-20T18:53:34.117Z,24.00
2018-04-20T18:56:02.529Z,24.07
2018-04-20T18:58:30.951Z,24.15
2018-04-20T19:00:59.352Z,23.87
2018-04-20T19:03:27.785Z,24.08
2018-04-20T19:05:56.277Z,24.15
2018-04-20T19:08:24.750Z,23.57
2018-04-20T19:10:53.182Z,23.75
2018-04-20T19:13:21.617Z,23.52
2018-04-20T19:15:50.026Z,23.66
2018-04-20T19:18:18.538Z,23.37
2018-04-20T19:20:46.997Z,23.08
2018-04-20T19:23:15.384Z,23.32
2018-04-20T19:25:43.793Z,23.26
2018-04-20T19:28:12.205Z,22.89
2018-04-20T19:30:40.691Z,22.75
2018-04-20T19:33:09.081Z,22.75
2018-04-20T19:35:37.482Z,22.68
2018-04-20T19:38:05.882Z,22.56
2018-04-20T19:40:34.289Z,22.61
2018-04-20T19:43:02.766Z,22.44
2018-04-20T19:45:31.261Z,22.63
2018-04-20T19:47:59.678Z,22.59
2018-04-20T19:50:28.091Z,22.32
2018-04-20T19:52:56.563Z,22.05
2018-04-20T19:55:24.955Z,21.94
2018-04-20T19:57:53.348Z,21.74
2018-04-20T20:00:21.826Z,21.74
2018-04-20T20:02:50.327Z,21.71
2018-04-20T20:05:18.729Z,21.72
2018-04-20T20:07:47.125Z,21.52
2018-04-20T20:10:15.550Z,21.67
2018-04-20T20:12:44.017Z,21.38
2018-04-20T20:15:12.419Z,21.62
2018-04-20T20:17:40.823Z,21.52
2018-04-20T20:20:09.241Z,21.16
2018-04-20T20:22:37.656Z,21.07
2018-04-20T20:25:06.150Z,21.29
2018-04-20T20:27:34.560Z,21.16
2018-04-20T20:30:02.976Z,20.89
2018-04-20T20:32:31.388Z,21.23
2018-04-20T20:34:59.871Z,20.95
2018-04-20T20:37:28.344Z,20.87
2018-04-20T20:39:56.755Z,21.15
2018-04-20T20:42:25.173Z,20.82
2018-04-20T20:44:53.663Z,21.09
2018-04-20T20:47:22.106Z,20.71
2018-04-20T20:49:50.555Z,20.49
2018-04-20T20:52:18.948Z,20.55
2018-04-20T20:54:47.357Z,20.83
2018-04-20T20:57:15.761Z,20.31
2018-04-20T20:59:44.268Z,20.33
2018-04-20T21:02:12.706Z,20.40
2018-04-20T21:04:41.096Z,20.22
2018-04-20T21:07:09.624Z,20.05
2018-04-20T21:09:38.173Z,20.50
2018-04-20T21:12:06.532Z,20.15
2018-04-20T21:14:34.919Z,20.38
2018-04-20T21:17:03.387Z,20.14
2018-04-20T21:19:31.775Z,20.03
2018-04-20T21:22:00.169Z,20.02
2018-04-20T21:24:28.537Z,20.26
2018-04-20T21:26:56.940Z,20.28
2018-04-20T21:29:25.316Z,20.16
2018-04-20T21:31:53.707Z,20.05
2018-04-20T21:34:22.078Z,19.55
2018-04-20T21:36:50.468Z,19.52
2018-04-20T21:39:18.884Z,19.80
2018-04-20T21:41:47.283Z,19.63
2018-04-20T21:44:15.658Z,19.47
2018-04-20T21:46:44.020Z,19.57
2018-04-20T21:49:12.391Z,19.22
2018-04-20T21:51:40.745Z,19.36
2018-04-20T21:54:09.135Z,19.23
2018-04-20T21:56:37.575Z,19.55
2018-04-20T21:59:05.954Z,19.29
2018-04-20T22:01:34.331Z,19.17
2018-04-20T22:04:02.759Z,19.19
2018-04-20T22:06:31.155Z,19.16
2018-04-20T22:08:59.518Z,18.94
2018-04-20T22:11:27.922Z,19.03
2018-04-20T22:13:56.338Z,19.18
2018-04-20T22:16:24.697Z,19.23
2018-04-20T22:18:53.096Z,19.05
2018-04-20T22:21:21.520Z,19.20
2018-04-20T22:23:50.044Z,19.21
2018-04-20T22:26:18.457Z,19.02
2018-04-20T22:28:46.898Z,19.01
2018-04-20T22:31:15.574Z,19.10
2018-04-20T22:33:44.170Z,19.29
2018-04-20T22:36:12.583Z,18.88
2018-04-20T22:38:40.970Z,18.88
2018-04-20T22:41:09.356Z,19.15
2018-04-20T22:43:37.810Z,19.16
2018-04-20T22:46:06.317Z,19.05
2018-04-20T22:48:34.941Z,19.10
2018-04-20T22:51:03.374Z,19.47
2018-04-20T22:53:31.760Z,20.11
2018-04-20T22:56:00.204Z,20.13
2018-04-20T22:58:28.650Z,20.19
2018-04-20T23:00:57.061Z,20.13
2018-04-20T23:03:25.500Z,20.16
2018-04-20T23:05:53.934Z,19.80
2018-04-20T23:08:22.336Z,19.63
2018-04-20T23:10:50.743Z,19.68
2018-04-20T23:13:19.146Z,19.61
2018-04-20T23:15:47.528Z,19.72
2018-04-20T23:18:15.984Z,19.87
2018-04-20T23:20:44.496Z,20.04
2018-04-20T23:23:12.900Z,20.17
2018-04-20T23:25:41.338Z,20.23
2018-04-20T23:28:09.739Z,20.31
2018-04-20T23:30:38.203Z,20.28
2018-04-20T23:33:06.606Z,20.03
2018-04-20T23:35:34.995Z,20.03
2018-04-20T23:38:03.398Z,19.79
2018-04-20T23:40:31.807Z,19.58
2018-04-20T23:43:00.256Z,19.21
2018-04-20T23:45:28.663Z,19.06
2018-04-20T23:47:57.026Z,18.79
2018-04-20T23:50:25.503Z,18.74
2018-04-20T23:52:53.860Z,18.52
2018-04-20T23:55:22.226Z,18.88
2018-04-20T23:57:50.589Z,19.04
